Time;durP1;ratioP1;P1;durP2;ratioP2;P2;SDS_P1;SDS_P2;PMS_P1;PMS_P2;Temp;Humidity;BMP_temperature;BMP_pressure;BME280_temperature;BME280_humidity;BME280_pressure;Samples;Min_cycle;Max_cycle;Signal;HPM_P1;HPM_P2
2023/03/08 00:02:07;;;;;;;153.45;56.30;;;0.10;99.90;;;;;;5013992;28;20081;-81
2023/03/08 00:04:34;;;;;;;133.98;48.20;;;0.10;99.90;;;;;;5037819;28;20045;-82
2023/03/08 00:07:02;;;;;;;137.98;49.97;;;0.10;99.90;;;;;;5035627;28;20147;-85
2023/03/08 00:09:28;;;;;;;142.90;51.85;;;0.20;99.90;;;;;;5034166;28;20463;-82
2023/03/08 00:11:55;;;;;;;124.68;50.30;;;0.20;99.90;;;;;;5027055;28;20049;-84
2023/03/08 00:14:22;;;;;;;117.57;44.90;;;0.20;99.90;;;;;;5029227;28;20063;-82
2023/03/08 00:16:48;;;;;;;126.40;49.67;;;0.20;99.90;;;;;;5040243;28;20037;-80
2023/03/08 00:19:15;;;;;;;129.45;50.58;;;0.20;99.90;;;;;;5035190;28;20041;-80
2023/03/08 00:21:42;;;;;;;113.50;44.45;;;0.20;99.90;;;;;;5019707;28;20095;-82
2023/03/08 00:24:11;;;;;;;113.63;44.50;;;0.20;99.90;;;;;;5023667;28;20621;-80
2023/03/08 00:26:37;;;;;;;127.50;47.28;;;0.10;99.90;;;;;;5008534;28;20087;-84
2023/03/08 00:29:04;;;;;;;94.45;38.30;;;0.20;99.90;;;;;;5034463;28;20585;-79
2023/03/08 00:31:31;;;;;;;96.68;41.05;;;0.20;99.90;;;;;;5049966;28;20125;-82
2023/03/08 00:33:58;;;;;;;96.32;40.08;;;0.20;99.90;;;;;;5011768;28;20077;-82
2023/03/08 00:36:24;;;;;;;93.68;39.20;;;0.20;99.90;;;;;;5037326;28;20068;-82
2023/03/08 00:38:51;;;;;;;101.82;42.40;;;0.10;99.90;;;;;;5034591;28;20045;-80
2023/03/08 00:41:19;;;;;;;101.10;40.78;;;0.10;99.90;;;;;;5016315;28;20090;-81
2023/03/08 00:43:46;;;;;;;99.65;38.08;;;0.10;99.90;;;;;;5025405;28;20079;-82
2023/03/08 00:46:13;;;;;;;82.25;34.63;;;0.10;99.90;;;;;;5036749;28;20139;-81
2023/03/08 00:48:40;;;;;;;91.63;38.22;;;0.10;99.90;;;;;;5032237;28;20044;-80
2023/03/08 00:51:10;;;;;;;89.03;38.35;;;0.10;99.90;;;;;;5030735;28;20127;-79
2023/03/08 00:53:37;;;;;;;78.80;34.47;;;0.10;99.90;;;;;;5040688;28;20500;-80
2023/03/08 00:56:05;;;;;;;79.53;36.35;;;0.10;99.90;;;;;;5018251;28;20698;-80
2023/03/08 00:58:32;;;;;;;80.97;34.00;;;0.10;99.90;;;;;;5033249;28;20109;-79
2023/03/08 01:00:59;;;;;;;75.00;35.20;;;0.10;99.90;;;;;;5043975;28;20037;-79
2023/03/08 01:03:28;;;;;;;80.88;35.03;;;0.10;99.90;;;;;;5028702;28;20640;-79
2023/03/08 01:05:57;;;;;;;80.15;35.80;;;0.10;99.90;;;;;;5037874;28;20068;-79
2023/03/08 01:08:25;;;;;;;75.60;35.13;;;0.10;99.90;;;;;;5030695;28;20108;-79
2023/03/08 01:10:58;;;;;;;81.32;34.80;;;0.10;99.90;;;;;;5026498;28;20139;-79
2023/03/08 01:13:29;;;;;;;77.75;35.53;;;0.10;99.90;;;;;;5043506;28;20045;-80
2023/03/08 01:15:58;;;;;;;86.60;34.70;;;0.10;99.90;;;;;;5015178;28;20110;-81
2023/03/08 01:18:25;;;;;;;76.10;34.13;;;0.10;99.90;;;;;;5033069;28;20617;-82
2023/03/08 01:21:03;;;;;;;82.90;34.47;;;0.10;99.90;;;;;;5023908;28;20563;-81
2023/03/08 01:23:30;;;;;;;77.45;33.25;;;0.10;99.90;;;;;;5033889;28;20080;-82
2023/03/08 01:26:07;;;;;;;77.80;36.00;;;0.00;99.90;;;;;;5053468;28;20264;-79
2023/03/08 01:28:34;;;;;;;80.82;34.03;;;0.00;99.90;;;;;;5030986;28;20033;-83
2023/03/08 01:31:06;;;;;;;74.85;34.60;;;0.00;99.90;;;;;;5048010;28;20640;-79
2023/03/08 01:33:35;;;;;;;74.35;32.55;;;0.00;99.90;;;;;;5052782;28;20045;-81
2023/03/08 01:36:07;;;;;;;85.78;33.15;;;-0.10;99.90;;;;;;5054449;28;20743;-80
2023/03/08 01:38:34;;;;;;;91.07;36.50;;;-0.10;99.90;;;;;;5057751;28;20771;-81
2023/03/08 01:41:04;;;;;;;80.40;33.78;;;-0.10;99.90;;;;;;5053997;28;20053;-80
2023/03/08 01:43:37;;;;;;;81.60;34.80;;;-0.10;99.90;;;;;;5036019;28;20472;-80
2023/03/08 01:46:19;;;;;;;76.90;35.22;;;-0.10;99.90;;;;;;5017509;28;20103;-81
2023/03/08 01:49:00;;;;;;;77.20;34.47;;;-0.10;99.90;;;;;;5028864;28;20547;-79
2023/03/08 01:51:41;;;;;;;86.20;35.50;;;-0.10;99.90;;;;;;5063086;28;20053;-79
2023/03/08 01:54:23;;;;;;;77.43;34.85;;;-0.10;99.90;;;;;;5045993;28;20139;-80
2023/03/08 01:56:52;;;;;;;77.20;33.75;;;-0.10;99.90;;;;;;5067589;28;20048;-80
2023/03/08 01:59:21;;;;;;;73.35;32.95;;;-0.10;99.90;;;;;;5024937;28;20043;-79
2023/03/08 02:01:48;;;;;;;77.45;33.20;;;0.00;99.90;;;;;;5045122;28;20051;-81
2023/03/08 02:04:16;;;;;;;80.28;31.40;;;-0.10;99.90;;;;;;5050541;28;20083;-79
2023/03/08 02:06:44;;;;;;;81.65;35.67;;;-0.10;99.90;;;;;;5041122;28;20064;-80
2023/03/08 02:09:12;;;;;;;77.75;32.85;;;-0.10;99.90;;;;;;5028205;28;20048;-81
2023/03/08 02:11:40;;;;;;;82.57;34.58;;;-0.10;99.90;;;;;;5055999;28;20059;-81
2023/03/08 02:14:07;;;;;;;69.82;33.80;;;-0.10;99.90;;;;;;5031381;28;20068;-81
2023/03/08 02:16:36;;;;;;;74.85;32.88;;;-0.10;99.90;;;;;;5039931;28;20047;-81
2023/03/08 02:19:09;;;;;;;77.88;32.28;;;0.00;99.90;;;;;;5048892;28;20105;-80
2023/03/08 02:21:36;;;;;;;76.85;33.83;;;0.00;99.90;;;;;;5020145;28;20095;-80
2023/03/08 02:24:23;;;;;;;76.95;35.45;;;-0.10;99.90;;;;;;5047298;28;20044;-80
2023/03/08 02:27:01;;;;;;;80.82;34.17;;;-0.10;99.90;;;;;;5046592;28;20401;-79
2023/03/08 02:29:28;;;;;;;72.95;32.08;;;-0.10;99.90;;;;;;5050078;28;20140;-78
2023/03/08 02:31:55;;;;;;;76.28;34.00;;;-0.10;99.90;;;;;;5049338;28;20048;-78
2023/03/08 02:34:22;;;;;;;85.15;34.67;;;-0.10;99.90;;;;;;5046440;28;20728;-78
2023/03/08 02:36:49;;;;;;;82.78;35.65;;;-0.10;99.90;;;;;;5054523;28;20496;-78
2023/03/08 02:39:17;;;;;;;75.35;34.00;;;-0.10;99.90;;;;;;5039584;28;20044;-78
2023/03/08 02:41:43;;;;;;;85.50;36.25;;;-0.20;99.90;;;;;;5049322;28;20036;-79
2023/03/08 02:44:12;;;;;;;79.60;36.03;;;-0.20;99.90;;;;;;5036039;28;20043;-81
2023/03/08 02:46:39;;;;;;;77.55;32.80;;;-0.20;99.90;;;;;;5052587;28;20044;-79
2023/03/08 02:49:05;;;;;;;89.85;37.50;;;-0.20;99.90;;;;;;5024206;28;20079;-79
2023/03/08 02:51:32;;;;;;;86.80;36.78;;;-0.20;99.90;;;;;;5046061;28;20098;-82
2023/03/08 02:53:58;;;;;;;93.78;38.83;;;-0.20;99.90;;;;;;5055883;28;20032;-81
2023/03/08 02:56:26;;;;;;;87.47;38.53;;;-0.20;99.90;;;;;;5030674;28;20049;-78
2023/03/08 02:58:53;;;;;;;96.10;40.03;;;-0.20;99.90;;;;;;5060683;28;20036;-79
2023/03/08 03:01:22;;;;;;;99.85;38.55;;;-0.20;99.90;;;;;;5037346;28;20048;-78
2023/03/08 03:03:52;;;;;;;97.50;38.28;;;-0.10;99.90;;;;;;5029117;28;20053;-83
2023/03/08 03:06:20;;;;;;;94.70;38.15;;;-0.10;99.90;;;;;;5022199;28;20110;-79
2023/03/08 03:08:51;;;;;;;90.60;37.70;;;-0.10;99.90;;;;;;5025923;28;20041;-80
2023/03/08 03:11:20;;;;;;;100.00;40.03;;;-0.20;99.90;;;;;;5027513;28;20053;-79
2023/03/08 03:13:57;;;;;;;103.65;39.65;;;-0.20;99.90;;;;;;5040910;28;20570;-79
2023/03/08 03:16:28;;;;;;;98.82;39.70;;;-0.10;99.90;;;;;;5041350;28;20041;-80
2023/03/08 03:18:55;;;;;;;99.05;40.92;;;-0.10;99.90;;;;;;5055557;28;20068;-78
2023/03/08 03:21:23;;;;;;;100.82;41.25;;;-0.20;99.90;;;;;;5036142;28;20822;-81
2023/03/08 03:23:50;;;;;;;102.35;42.22;;;-0.10;99.90;;;;;;5038872;28;20060;-78
2023/03/08 03:26:22;;;;;;;100.82;41.08;;;-0.10;99.90;;;;;;5045908;28;20303;-77
2023/03/08 03:28:55;;;;;;;98.47;42.20;;;-0.10;99.90;;;;;;5041159;28;20139;-77
2023/03/08 03:31:25;;;;;;;102.90;41.03;;;-0.10;99.90;;;;;;5042262;28;20044;-77
2023/03/08 03:33:52;;;;;;;113.03;45.20;;;-0.20;99.90;;;;;;5054599;28;20563;-78
2023/03/08 03:36:22;;;;;;;101.70;42.80;;;-0.20;99.90;;;;;;5036965;28;20036;-78
2023/03/08 03:38:50;;;;;;;112.97;45.92;;;-0.30;99.90;;;;;;5036753;28;20281;-78
2023/03/08 03:41:20;;;;;;;99.13;42.50;;;-0.30;99.90;;;;;;5026978;28;20239;-78
2023/03/08 03:43:51;;;;;;;105.95;45.03;;;-0.20;99.90;;;;;;5046003;28;20425;-77
2023/03/08 03:46:20;;;;;;;115.75;44.78;;;-0.30;99.90;;;;;;5025274;28;20547;-79
2023/03/08 03:48:50;;;;;;;107.30;44.45;;;-0.30;99.90;;;;;;5047483;28;20048;-78
2023/03/08 03:51:20;;;;;;;114.45;46.85;;;-0.40;99.90;;;;;;5034125;28;20048;-78
2023/03/08 03:53:53;;;;;;;112.38;47.38;;;-0.40;99.90;;;;;;5047782;28;20553;-78
2023/03/08 03:56:25;;;;;;;121.15;46.00;;;-0.40;99.90;;;;;;5043637;28;20047;-78
2023/03/08 03:58:55;;;;;;;108.03;44.33;;;-0.40;99.90;;;;;;5044669;28;20541;-81
2023/03/08 04:01:27;;;;;;;115.43;45.80;;;-0.40;99.90;;;;;;5052690;28;20040;-81
2023/03/08 04:04:00;;;;;;;110.78;46.30;;;-0.40;99.90;;;;;;5028805;28;20052;-78
2023/03/08 04:06:33;;;;;;;113.85;45.28;;;-0.40;99.90;;;;;;5030298;28;20093;-79
2023/03/08 04:09:05;;;;;;;119.25;48.30;;;-0.40;99.90;;;;;;5047343;28;20698;-82
2023/03/08 04:11:37;;;;;;;130.23;50.60;;;-0.30;99.90;;;;;;5028071;28;20032;-81
2023/03/08 04:14:06;;;;;;;112.78;44.40;;;-0.30;99.90;;;;;;5034098;28;20052;-80
2023/03/08 04:16:36;;;;;;;120.47;48.08;;;-0.20;99.90;;;;;;5035081;28;20066;-79
2023/03/08 04:19:11;;;;;;;110.18;44.33;;;-0.30;99.90;;;;;;5028440;28;20048;-83
2023/03/08 04:21:41;;;;;;;115.80;45.90;;;-0.40;99.90;;;;;;5036737;28;20175;-78
2023/03/08 04:24:09;;;;;;;113.25;46.08;;;-0.40;99.90;;;;;;5042245;28;20098;-78
2023/03/08 04:26:36;;;;;;;119.28;47.13;;;-0.50;99.90;;;;;;5046429;28;20047;-78
2023/03/08 04:29:05;;;;;;;111.97;44.60;;;-0.60;99.90;;;;;;5025239;28;20080;-79
2023/03/08 04:31:34;;;;;;;115.43;46.22;;;-0.70;99.90;;;;;;5039226;28;20040;-78
2023/03/08 04:34:04;;;;;;;118.38;45.38;;;-0.80;99.90;;;;;;5056575;28;20075;-78
2023/03/08 04:36:31;;;;;;;122.88;49.67;;;-0.70;99.90;;;;;;5028761;28;20067;-79
2023/03/08 04:38:59;;;;;;;123.25;49.25;;;-0.70;99.90;;;;;;5034403;28;20106;-77
2023/03/08 04:41:26;;;;;;;118.28;48.47;;;-0.70;99.90;;;;;;5046488;28;20045;-77
2023/03/08 04:44:03;;;;;;;118.63;47.75;;;-0.80;99.90;;;;;;5019838;28;20032;-76
2023/03/08 04:46:41;;;;;;;112.43;47.55;;;-0.90;99.90;;;;;;5038744;28;20051;-77
2023/03/08 04:49:12;;;;;;;116.38;47.70;;;-0.90;99.90;;;;;;5041936;28;20604;-77
2023/03/08 04:51:43;;;;;;;127.22;49.58;;;-1.00;99.90;;;;;;5032085;28;20124;-77
2023/03/08 04:54:11;;;;;;;118.30;50.33;;;-1.00;99.90;;;;;;5029023;28;20046;-76
2023/03/08 04:56:44;;;;;;;123.90;49.58;;;-1.00;99.90;;;;;;5043750;28;20047;-79
2023/03/08 04:59:12;;;;;;;121.57;50.30;;;-1.00;99.90;;;;;;5040227;28;20264;-78
2023/03/08 05:01:41;;;;;;;119.00;50.42;;;-0.90;99.90;;;;;;5032154;28;20045;-76
2023/03/08 05:04:10;;;;;;;114.70;47.28;;;-0.90;99.90;;;;;;5042558;28;20060;-77
2023/03/08 05:06:38;;;;;;;124.85;49.33;;;-1.00;99.90;;;;;;5018565;28;20037;-78
2023/03/08 05:09:06;;;;;;;113.95;44.90;;;-1.00;99.90;;;;;;5037687;28;20555;-77
2023/03/08 05:11:35;;;;;;;114.80;48.72;;;-1.00;99.90;;;;;;5035357;28;20041;-77
2023/03/08 05:14:03;;;;;;;112.80;45.63;;;-1.00;99.90;;;;;;5051400;28;20686;-77
2023/03/08 05:16:30;;;;;;;114.22;47.88;;;-1.10;99.90;;;;;;5048352;28;20037;-77
2023/03/08 05:18:57;;;;;;;110.15;47.85;;;-1.00;99.90;;;;;;5031109;28;20074;-78
2023/03/08 05:21:29;;;;;;;115.82;49.17;;;-1.10;99.90;;;;;;5027215;28;20335;-76
2023/03/08 05:23:59;;;;;;;120.18;49.58;;;-1.10;99.90;;;;;;5036368;28;20045;-77
2023/03/08 05:26:29;;;;;;;132.68;54.75;;;-1.00;99.90;;;;;;5034647;28;20050;-77
2023/03/08 05:28:55;;;;;;;141.35;53.92;;;-1.00;99.90;;;;;;5044159;28;20041;-76
2023/03/08 05:31:27;;;;;;;120.18;51.33;;;-1.00;99.90;;;;;;5036435;28;20041;-76
2023/03/08 05:33:56;;;;;;;117.80;46.20;;;-1.00;99.90;;;;;;5018072;28;20497;-77
2023/03/08 05:36:33;;;;;;;120.15;47.28;;;-1.00;99.90;;;;;;5014896;28;20061;-77
2023/03/08 05:39:01;;;;;;;114.70;48.90;;;-1.00;99.90;;;;;;5037459;28;20053;-76
2023/03/08 05:41:37;;;;;;;113.32;49.90;;;-1.00;99.90;;;;;;5039705;28;20072;-77
2023/03/08 05:44:05;;;;;;;119.45;48.35;;;-1.10;99.90;;;;;;5021593;28;20458;-76
2023/03/08 05:46:33;;;;;;;127.47;51.55;;;-1.10;99.90;;;;;;5036390;28;20056;-77
2023/03/08 05:49:01;;;;;;;121.90;52.13;;;-1.10;99.90;;;;;;5024606;28;20056;-76
2023/03/08 05:51:32;;;;;;;119.15;50.72;;;-0.90;99.90;;;;;;5023266;28;20040;-77
2023/03/08 05:53:59;;;;;;;107.00;49.92;;;-0.90;99.90;;;;;;5045287;28;20051;-77
2023/03/08 05:56:26;;;;;;;122.50;51.50;;;-1.00;99.90;;;;;;5037971;28;20043;-76
2023/03/08 05:59:03;;;;;;;130.73;53.22;;;-1.00;99.90;;;;;;5034587;28;20040;-77
2023/03/08 06:01:30;;;;;;;115.38;51.10;;;-0.90;99.90;;;;;;5034105;28;20045;-76
2023/03/08 06:04:09;;;;;;;120.03;53.00;;;-0.90;99.90;;;;;;5038176;28;20046;-78
2023/03/08 06:06:39;;;;;;;118.93;56.90;;;-0.90;99.90;;;;;;5021794;28;20060;-77
2023/03/08 06:09:07;;;;;;;117.32;54.97;;;-0.80;99.90;;;;;;5047407;28;20209;-77
2023/03/08 06:11:38;;;;;;;126.72;55.45;;;-0.80;99.90;;;;;;5040890;28;20464;-77
2023/03/08 06:14:05;;;;;;;118.10;55.10;;;-0.80;99.90;;;;;;5029962;28;20033;-76
2023/03/08 06:16:34;;;;;;;111.93;51.30;;;-0.70;99.90;;;;;;5033282;28;20040;-78
2023/03/08 06:19:02;;;;;;;108.47;53.13;;;-0.70;99.90;;;;;;5042751;28;20694;-78
2023/03/08 06:21:30;;;;;;;118.38;52.53;;;-0.70;99.90;;;;;;5040216;28;20575;-78
2023/03/08 06:24:01;;;;;;;115.32;54.17;;;-0.70;99.90;;;;;;5027787;28;20040;-77
2023/03/08 06:26:27;;;;;;;103.40;49.15;;;-0.70;99.90;;;;;;5027234;28;20052;-77
2023/03/08 06:28:54;;;;;;;109.88;47.92;;;-0.60;99.90;;;;;;5043109;28;20040;-78
2023/03/08 06:31:25;;;;;;;101.93;47.90;;;-0.70;99.90;;;;;;5040234;28;20038;-77
2023/03/08 06:33:52;;;;;;;104.22;50.08;;;-0.70;99.90;;;;;;5022706;28;20045;-78
2023/03/08 06:36:23;;;;;;;121.97;53.85;;;-0.70;99.90;;;;;;5027154;28;20090;-78
2023/03/08 06:38:50;;;;;;;105.88;52.40;;;-0.60;99.90;;;;;;5036511;28;20057;-78
2023/03/08 06:41:18;;;;;;;112.85;47.45;;;-0.50;99.90;;;;;;5036624;28;20267;-76
2023/03/08 06:43:48;;;;;;;97.25;43.33;;;-0.40;99.90;;;;;;5020928;28;20060;-77
2023/03/08 06:46:17;;;;;;;114.70;48.92;;;-0.40;99.90;;;;;;5042001;28;20274;-77
2023/03/08 06:48:45;;;;;;;105.28;47.60;;;-0.30;99.90;;;;;;5040619;28;20099;-77
2023/03/08 06:51:13;;;;;;;99.53;48.78;;;-0.30;99.90;;;;;;5031422;28;20055;-75
2023/03/08 06:53:43;;;;;;;114.60;54.58;;;-0.10;99.90;;;;;;5014967;28;20048;-77
2023/03/08 06:56:13;;;;;;;109.43;52.53;;;0.00;99.90;;;;;;5010669;28;20290;-77
2023/03/08 06:58:41;;;;;;;94.13;49.20;;;0.00;99.90;;;;;;5013135;28;20041;-77
2023/03/08 07:01:08;;;;;;;89.43;45.95;;;0.00;99.90;;;;;;5030807;28;20491;-77
2023/03/08 07:03:36;;;;;;;98.32;49.20;;;0.10;99.90;;;;;;5031378;28;20041;-76
2023/03/08 07:06:05;;;;;;;96.82;49.65;;;0.10;99.90;;;;;;5028968;28;20053;-77
2023/03/08 07:08:32;;;;;;;83.20;47.17;;;0.20;99.90;;;;;;5030050;28;20478;-78
2023/03/08 07:11:00;;;;;;;91.70;50.97;;;0.30;99.90;;;;;;5055366;28;20090;-77
2023/03/08 07:13:28;;;;;;;73.15;44.10;;;0.30;99.90;;;;;;5015272;28;20041;-77
2023/03/08 07:15:56;;;;;;;122.57;51.78;;;0.40;99.90;;;;;;5026283;28;20041;-77
2023/03/08 07:18:23;;;;;;;78.72;45.25;;;0.50;99.90;;;;;;5008007;28;20075;-77
2023/03/08 07:20:57;;;;;;;58.55;37.13;;;0.60;99.90;;;;;;5015290;28;20384;-78
2023/03/08 07:23:24;;;;;;;53.60;34.40;;;0.50;99.90;;;;;;5023607;28;20101;-78
2023/03/08 07:25:50;;;;;;;53.05;36.30;;;0.60;99.90;;;;;;5038061;28;20664;-78
2023/03/08 07:28:18;;;;;;;53.65;34.70;;;0.60;99.90;;;;;;5025804;28;20056;-76
2023/03/08 07:30:50;;;;;;;57.92;37.00;;;0.60;99.90;;;;;;5013689;28;20042;-77
2023/03/08 07:33:19;;;;;;;55.42;34.33;;;0.50;99.90;;;;;;5026837;28;20045;-78
2023/03/08 07:35:45;;;;;;;54.10;34.33;;;0.70;99.90;;;;;;5016652;28;20063;-77
2023/03/08 07:38:13;;;;;;;49.83;32.78;;;0.80;99.90;;;;;;5028191;28;20049;-78
2023/03/08 07:40:39;;;;;;;51.28;33.58;;;0.70;99.90;;;;;;5048930;28;20043;-78
2023/03/08 07:43:06;;;;;;;48.60;32.10;;;0.70;99.90;;;;;;5052732;28;20045;-77
2023/03/08 07:45:51;;;;;;;49.38;30.55;;;0.70;99.90;;;;;;5033256;28;20569;-77
2023/03/08 07:48:18;;;;;;;51.53;31.10;;;0.80;99.90;;;;;;5036028;28;20049;-77
2023/03/08 07:50:47;;;;;;;50.22;32.00;;;0.90;99.90;;;;;;5023293;28;20480;-76
2023/03/08 07:53:14;;;;;;;52.75;31.85;;;1.00;99.90;;;;;;5020753;28;20145;-77
2023/03/08 07:55:41;;;;;;;54.63;33.13;;;1.00;99.90;;;;;;5041154;28;20041;-76
2023/03/08 07:58:08;;;;;;;54.42;30.95;;;1.10;99.90;;;;;;5036660;28;20065;-76
2023/03/08 08:00:34;;;;;;;48.38;31.50;;;1.20;99.90;;;;;;5029701;28;20116;-77
2023/03/08 08:03:01;;;;;;;47.78;31.42;;;1.30;99.90;;;;;;5028898;28;20584;-77
2023/03/08 08:05:28;;;;;;;44.75;30.13;;;1.30;99.90;;;;;;5039546;28;20052;-77
2023/03/08 08:07:54;;;;;;;44.47;30.40;;;1.20;99.90;;;;;;5039244;28;20134;-75
2023/03/08 08:10:21;;;;;;;40.15;29.83;;;1.30;99.90;;;;;;5039811;28;20124;-77
2023/03/08 08:12:48;;;;;;;41.33;31.17;;;1.40;99.90;;;;;;5031721;28;20033;-76
2023/03/08 08:15:16;;;;;;;38.90;29.25;;;1.40;99.90;;;;;;5044293;28;20139;-75
2023/03/08 08:17:42;;;;;;;40.00;30.17;;;1.30;99.90;;;;;;5039808;28;20063;-77
2023/03/08 08:20:10;;;;;;;41.25;30.77;;;1.40;99.90;;;;;;5032306;28;20048;-75
2023/03/08 08:22:37;;;;;;;37.53;28.52;;;1.30;99.90;;;;;;5037223;28;20049;-77
2023/03/08 08:25:05;;;;;;;32.97;25.23;;;1.20;99.90;;;;;;5042943;28;20414;-76
2023/03/08 08:27:32;;;;;;;33.65;24.70;;;1.10;99.90;;;;;;5031948;28;20568;-77
2023/03/08 08:29:59;;;;;;;32.88;24.38;;;1.00;99.90;;;;;;5030169;28;20336;-75
2023/03/08 08:32:26;;;;;;;32.97;23.90;;;0.90;99.90;;;;;;5039170;28;20033;-77
2023/03/08 08:34:52;;;;;;;31.90;23.92;;;1.00;99.90;;;;;;5017246;28;20073;-76
2023/03/08 08:37:19;;;;;;;28.55;22.67;;;1.10;99.90;;;;;;5043475;28;20475;-77
2023/03/08 08:39:46;;;;;;;25.65;20.85;;;1.00;99.90;;;;;;5042063;28;20040;-77
2023/03/08 08:42:13;;;;;;;29.00;22.90;;;1.00;99.90;;;;;;5039160;28;20421;-76
2023/03/08 08:44:39;;;;;;;27.70;23.48;;;1.10;99.90;;;;;;5028367;28;20070;-77
2023/03/08 08:47:06;;;;;;;25.70;20.85;;;0.90;99.90;;;;;;5040442;28;20406;-76
2023/03/08 08:49:34;;;;;;;23.55;20.52;;;1.00;99.90;;;;;;5031893;28;20048;-77
2023/03/08 08:52:00;;;;;;;22.45;19.40;;;1.00;99.90;;;;;;5030488;28;20056;-78
2023/03/08 08:54:27;;;;;;;23.73;18.15;;;0.90;99.90;;;;;;5019028;28;20047;-76
2023/03/08 08:56:54;;;;;;;20.13;17.92;;;1.00;99.90;;;;;;5023232;28;20045;-78
2023/03/08 08:59:21;;;;;;;21.40;18.42;;;1.00;99.90;;;;;;5028595;28;20045;-77
2023/03/08 09:01:47;;;;;;;20.63;18.52;;;1.00;99.90;;;;;;5010852;28;20038;-77
2023/03/08 09:04:15;;;;;;;20.23;18.20;;;1.10;99.90;;;;;;5027468;28;20488;-77
2023/03/08 09:06:42;;;;;;;19.50;17.67;;;0.90;99.90;;;;;;5006401;28;20462;-77
2023/03/08 09:09:09;;;;;;;20.70;18.58;;;0.90;99.90;;;;;;5014781;28;20553;-79
2023/03/08 09:11:36;;;;;;;20.98;18.95;;;1.00;99.90;;;;;;5008904;28;20287;-78
2023/03/08 09:14:19;;;;;;;19.40;17.48;;;1.00;99.90;;;;;;5028465;28;21497;-79
2023/03/08 09:16:46;;;;;;;20.50;18.58;;;1.10;99.90;;;;;;5032836;28;20037;-78
2023/03/08 09:19:14;;;;;;;15.82;14.63;;;1.00;99.90;;;;;;5029154;28;20047;-79
2023/03/08 09:21:41;;;;;;;16.00;14.73;;;0.90;99.90;;;;;;5026113;28;20057;-77
2023/03/08 09:24:10;;;;;;;16.40;14.88;;;0.80;99.90;;;;;;5026079;28;20079;-78
2023/03/08 09:26:37;;;;;;;16.88;15.48;;;0.90;99.90;;;;;;5010396;28;20048;-80
2023/03/08 09:29:06;;;;;;;18.42;16.83;;;1.10;99.90;;;;;;5041259;28;20053;-77
2023/03/08 09:31:34;;;;;;;17.02;15.60;;;1.30;99.90;;;;;;5045951;28;20202;-77
2023/03/08 09:34:04;;;;;;;17.70;16.15;;;1.30;99.90;;;;;;5034200;28;20041;-78
2023/03/08 09:36:30;;;;;;;16.17;14.77;;;1.30;99.90;;;;;;5038561;28;20041;-77
2023/03/08 09:38:57;;;;;;;16.77;15.55;;;1.10;99.90;;;;;;5022183;28;20120;-79
2023/03/08 09:41:34;;;;;;;15.20;14.13;;;0.90;99.90;;;;;;5028013;28;20037;-81
2023/03/08 09:44:42;;;;;;;14.93;13.93;;;0.90;99.90;;;;;;5025816;28;20084;-79
2023/03/08 09:47:15;;;;;;;14.00;13.07;;;0.80;99.90;;;;;;5029023;28;20057;-82
2023/03/08 09:49:44;;;;;;;13.00;12.15;;;0.70;99.90;;;;;;5021142;28;20155;-80
2023/03/08 09:52:37;;;;;;;13.50;12.60;;;0.60;99.90;;;;;;5036998;28;20078;-84
2023/03/08 09:55:11;;;;;;;12.98;12.07;;;0.70;99.90;;;;;;5040785;28;20132;-80
2023/03/08 09:57:44;;;;;;;12.57;11.60;;;0.70;99.90;;;;;;5026139;28;20044;-79
2023/03/08 10:00:20;;;;;;;13.13;12.13;;;0.80;99.90;;;;;;5039040;28;20053;-81
2023/03/08 10:02:46;;;;;;;13.77;12.68;;;0.90;99.90;;;;;;5036528;28;20037;-82
2023/03/08 10:05:28;;;;;;;14.45;13.25;;;0.90;99.90;;;;;;5020363;28;20131;-83
2023/03/08 10:08:34;;;;;;;13.82;12.75;;;1.00;99.90;;;;;;5028172;28;20159;-82
2023/03/08 10:11:06;;;;;;;14.23;13.02;;;1.10;99.90;;;;;;5027264;28;20116;-84
2023/03/08 10:13:37;;;;;;;14.93;13.68;;;1.20;99.90;;;;;;5054005;28;20152;-80
2023/03/08 10:16:08;;;;;;;14.35;13.25;;;0.80;99.90;;;;;;5023490;28;20128;-84
2023/03/08 10:18:39;;;;;;;13.63;12.70;;;0.90;99.90;;;;;;5027256;28;20044;-80
2023/03/08 10:21:10;;;;;;;15.60;14.00;;;0.90;99.90;;;;;;5035279;28;20041;-82
2023/03/08 10:23:39;;;;;;;13.30;12.30;;;0.80;99.90;;;;;;5035193;28;20136;-80
2023/03/08 10:26:12;;;;;;;14.80;13.60;;;1.10;99.90;;;;;;5020903;28;20041;-83
2023/03/08 10:28:38;;;;;;;14.07;13.07;;;1.10;99.90;;;;;;5039808;28;20043;-86
2023/03/08 10:31:22;;;;;;;15.88;14.77;;;0.90;99.90;;;;;;5021034;28;20040;-82
2023/03/08 10:34:12;;;;;;;14.10;12.90;;;0.90;99.90;;;;;;5027870;28;20132;-82
2023/03/08 10:36:52;;;;;;;14.82;13.55;;;0.70;99.90;;;;;;5040696;28;20079;-81
2023/03/08 10:39:20;;;;;;;13.32;12.35;;;0.70;99.90;;;;;;5032858;28;20131;-82
2023/03/08 10:41:51;;;;;;;15.77;14.68;;;0.90;99.90;;;;;;5027666;28;20567;-80
2023/03/08 10:44:50;;;;;;;14.48;13.48;;;0.90;99.90;;;;;;5039606;28;20138;-80
2023/03/08 10:47:26;;;;;;;13.38;12.38;;;0.80;99.90;;;;;;5032205;28;20045;-79
2023/03/08 10:50:16;;;;;;;14.50;13.45;;;1.00;99.90;;;;;;5039306;28;20056;-81
2023/03/08 10:52:45;;;;;;;14.80;13.80;;;1.00;99.90;;;;;;5035639;28;20417;-80
2023/03/08 10:55:15;;;;;;;14.70;13.48;;;1.20;99.90;;;;;;5035800;28;20072;-80
2023/03/08 10:57:49;;;;;;;13.65;12.73;;;1.30;99.90;;;;;;5038123;28;20651;-83
2023/03/08 11:00:19;;;;;;;13.80;12.70;;;1.20;99.90;;;;;;5039609;28;20110;-82
2023/03/08 11:02:47;;;;;;;13.77;12.73;;;1.20;99.90;;;;;;5035748;28;20569;-81
2023/03/08 11:05:22;;;;;;;14.05;12.65;;;1.10;99.90;;;;;;5040262;28;20040;-81
2023/03/08 11:07:51;;;;;;;14.13;12.93;;;1.30;99.90;;;;;;5043162;28;20518;-86
2023/03/08 11:10:22;;;;;;;18.30;14.00;;;1.30;99.90;;;;;;5035493;28;21158;-83
2023/03/08 11:13:01;;;;;;;14.35;12.85;;;1.10;99.90;;;;;;5039032;28;20476;-84
2023/03/08 11:15:31;;;;;;;20.60;15.85;;;1.00;99.90;;;;;;5037644;28;20090;-81
2023/03/08 11:18:41;;;;;;;43.53;21.85;;;1.00;99.90;;;;;;5061972;28;20633;-80
2023/03/08 11:21:31;;;;;;;23.70;17.83;;;1.10;99.90;;;;;;5042160;28;20564;-81
2023/03/08 11:24:12;;;;;;;20.02;18.58;;;0.80;99.90;;;;;;5040346;28;20355;-84
2023/03/08 11:26:50;;;;;;;18.80;17.70;;;0.90;99.90;;;;;;5042836;28;20596;-82
2023/03/08 11:29:35;;;;;;;20.17;18.85;;;1.20;99.90;;;;;;5045653;28;20052;-78
2023/03/08 11:32:49;;;;;;;21.33;19.95;;;1.30;99.90;;;;;;5028122;28;20058;-80
2023/03/08 11:35:27;;;;;;;24.27;22.88;;;1.10;99.90;;;;;;5022580;28;20062;-82
2023/03/08 11:38:06;;;;;;;19.88;18.48;;;1.10;99.90;;;;;;5042924;28;20043;-81
2023/03/08 11:40:44;;;;;;;18.17;16.98;;;1.00;99.90;;;;;;5032620;28;20637;-80
2023/03/08 11:43:24;;;;;;;17.02;15.93;;;0.80;99.90;;;;;;5030446;28;20132;-81
2023/03/08 11:46:02;;;;;;;17.95;16.85;;;0.70;99.90;;;;;;5041476;28;20095;-81
2023/03/08 11:48:47;;;;;;;16.83;15.52;;;0.70;99.90;;;;;;5026915;28;20123;-79
2023/03/08 11:51:20;;;;;;;;;;;0.70;99.90;;;;;;5029640;28;20460;-79
2023/03/08 11:53:58;;;;;;;14.77;13.98;;;0.60;99.90;;;;;;5037315;28;19924;-79
2023/03/08 11:56:49;;;;;;;19.10;17.90;;;0.50;99.90;;;;;;5032768;28;20300;-80
2023/03/08 11:59:59;;;;;;;16.20;15.20;;;0.50;99.90;;;;;;5043024;28;20040;-82
2023/03/08 12:02:36;;;;;;;15.50;14.60;;;0.70;99.90;;;;;;5011005;28;20040;-81
2023/03/08 12:05:11;;;;;;;16.17;15.18;;;0.60;99.90;;;;;;5029457;28;20156;-80
2023/03/08 12:07:59;;;;;;;15.10;14.20;;;0.60;99.90;;;;;;5030940;28;20048;-79
2023/03/08 12:10:48;;;;;;;16.95;15.88;;;0.60;99.90;;;;;;5037981;28;20106;-82
2023/03/08 12:13:39;;;;;;;18.52;17.33;;;0.90;99.90;;;;;;5027463;28;20548;-82
2023/03/08 12:16:16;;;;;;;18.33;16.95;;;1.00;99.90;;;;;;5027195;28;20045;-79
2023/03/08 12:19:12;;;;;;;17.55;16.35;;;0.80;99.90;;;;;;5046920;28;20048;-78
2023/03/08 12:21:56;;;;;;;17.15;15.88;;;0.70;99.90;;;;;;5039936;28;20063;-82
2023/03/08 12:24:45;;;;;;;17.00;15.80;;;0.80;99.90;;;;;;5042950;28;20044;-82
2023/03/08 12:27:25;;;;;;;17.48;16.35;;;0.70;99.90;;;;;;5020374;28;20380;-80
2023/03/08 12:29:59;;;;;;;17.05;15.85;;;0.80;99.90;;;;;;5038096;28;20068;-79
2023/03/08 12:32:26;;;;;;;17.65;16.40;;;0.80;99.90;;;;;;5033195;28;20074;-79
2023/03/08 12:35:03;;;;;;;15.80;14.90;;;0.80;99.90;;;;;;5043605;28;20048;-80
2023/03/08 12:37:31;;;;;;;20.23;18.60;;;0.70;99.90;;;;;;5038011;28;20055;-79
2023/03/08 12:40:26;;;;;;;16.40;15.40;;;0.70;99.90;;;;;;5038990;28;20043;-80
2023/03/08 12:43:05;;;;;;;16.90;15.27;;;0.70;99.90;;;;;;5008105;28;20666;-79
2023/03/08 12:45:31;;;;;;;17.70;16.30;;;0.50;99.90;;;;;;5036498;28;20068;-79
2023/03/08 12:48:04;;;;;;;16.30;15.13;;;0.70;99.90;;;;;;5034190;28;20041;-79
2023/03/08 12:50:57;;;;;;;19.27;17.48;;;0.80;99.90;;;;;;5036051;28;20044;-81
2023/03/08 12:53:30;;;;;;;19.85;18.00;;;0.80;99.90;;;;;;5028092;28;20091;-80